createdAt,value
2023-02-14T00:01:24.440Z,36.05
2023-02-14T00:03:52.027Z,32.80
2023-02-14T00:06:19.396Z,30.70
2023-02-14T00:08:46.785Z,32.65
2023-02-14T00:11:14.249Z,33.75
2023-02-14T00:14:01.892Z,35.25
2023-02-14T00:16:29.310Z,28.55
2023-02-14T00:19:03.280Z,22.98
2023-02-14T00:21:36.857Z,28.85
2023-02-14T00:24:17.447Z,23.80
2023-02-14T00:26:45.426Z,25.38
2023-02-14T00:29:17.637Z,22.65
2023-02-14T00:31:45.851Z,27.83
2023-02-14T00:34:16.668Z,30.35
2023-02-14T00:36:45.086Z,21.88
2023-02-14T00:39:14.685Z,32.53
2023-02-14T00:41:43.578Z,22.95
2023-02-14T00:44:13.180Z,23.98
2023-02-14T00:46:41.628Z,24.55
2023-02-14T00:49:09.120Z,22.75
2023-02-14T00:51:39.538Z,24.00
2023-02-14T00:54:06.986Z,22.00
2023-02-14T00:56:34.384Z,19.90
2023-02-14T00:59:02.145Z,20.63
2023-02-14T01:01:29.785Z,23.30
2023-02-14T01:03:58.916Z,22.05
2023-02-14T01:06:26.425Z,22.42
2023-02-14T01:08:53.876Z,22.13
2023-02-14T01:11:24.082Z,20.58
2023-02-14T01:13:57.189Z,21.65
2023-02-14T01:16:28.288Z,24.75
2023-02-14T01:18:56.422Z,25.85
2023-02-14T01:21:30.333Z,22.25
2023-02-14T01:24:03.390Z,19.77
2023-02-14T01:26:31.395Z,19.80
2023-02-14T01:29:02.686Z,16.60
2023-02-14T01:31:33.263Z,19.65
2023-02-14T01:34:02.229Z,18.05
2023-02-14T01:36:35.431Z,15.75
2023-02-14T01:39:10.801Z,17.23
2023-02-14T01:41:41.476Z,20.42
2023-02-14T01:44:14.954Z,21.23
2023-02-14T01:46:45.116Z,26.05
2023-02-14T01:49:21.892Z,23.92
2023-02-14T01:52:19.461Z,27.35
2023-02-14T01:54:58.057Z,22.30
2023-02-14T01:57:33.435Z,26.77
2023-02-14T02:00:22.442Z,26.98
2023-02-14T02:02:50.005Z,37.42
2023-02-14T02:05:23.713Z,28.50
2023-02-14T02:07:55.281Z,22.13
2023-02-14T02:10:22.736Z,25.85
2023-02-14T02:12:53.642Z,25.25
2023-02-14T02:15:26.708Z,22.75
2023-02-14T02:18:18.403Z,18.20
2023-02-14T02:21:04.548Z,17.88
2023-02-14T02:23:59.811Z,17.42
2023-02-14T02:26:50.292Z,18.48
2023-02-14T02:29:51.786Z,17.45
2023-02-14T02:32:58.560Z,15.60
2023-02-14T02:36:02.970Z,17.67
2023-02-14T02:38:48.340Z,15.83
2023-02-14T02:41:52.929Z,13.35
2023-02-14T02:44:51.401Z,13.02
2023-02-14T02:47:54.364Z,14.63
2023-02-14T02:51:06.978Z,11.70
2023-02-14T02:54:03.289Z,13.88
2023-02-14T02:56:48.708Z,15.02
2023-02-14T02:59:38.348Z,15.13
2023-02-14T03:02:22.967Z,15.23
2023-02-14T03:05:02.129Z,12.93
2023-02-14T03:07:40.410Z,13.90
2023-02-14T03:10:26.652Z,14.95
2023-02-14T03:13:16.699Z,12.20
2023-02-14T03:16:02.364Z,15.45
2023-02-14T03:18:35.816Z,14.80
2023-02-14T03:21:12.368Z,17.35
2023-02-14T03:23:51.651Z,16.65
2023-02-14T03:26:27.285Z,14.93
2023-02-14T03:29:24.701Z,14.93
2023-02-14T03:31:59.922Z,16.83
2023-02-14T03:34:33.228Z,27.65
2023-02-14T03:37:10.917Z,22.58
2023-02-14T03:39:58.643Z,20.33
2023-02-14T03:42:39.185Z,18.90
2023-02-14T03:45:12.151Z,21.42
2023-02-14T03:47:43.789Z,23.20
2023-02-14T03:50:18.181Z,19.42
2023-02-14T03:52:50.879Z,16.27
2023-02-14T03:55:30.667Z,20.65
2023-02-14T03:58:12.804Z,22.77
2023-02-14T04:00:43.558Z,17.35
2023-02-14T04:03:15.299Z,15.93
2023-02-14T04:05:46.797Z,17.20
2023-02-14T04:08:25.470Z,15.02
2023-02-14T04:10:54.428Z,15.80
2023-02-14T04:13:22.115Z,14.90
2023-02-14T04:15:49.639Z,13.77
2023-02-14T04:18:35.762Z,13.00
2023-02-14T04:21:03.533Z,14.52
2023-02-14T04:23:31.113Z,16.40
2023-02-14T04:25:58.641Z,18.02
2023-02-14T04:28:25.932Z,15.07
2023-02-14T04:30:53.488Z,13.48
2023-02-14T04:33:21.022Z,12.80
2023-02-14T04:35:49.066Z,13.85
2023-02-14T04:38:16.454Z,11.48
2023-02-14T04:40:43.928Z,12.52
2023-02-14T04:43:11.398Z,11.93
2023-02-14T04:45:38.756Z,15.52
2023-02-14T04:48:06.171Z,15.02
2023-02-14T04:50:33.665Z,16.27
2023-02-14T04:53:01.020Z,21.50
2023-02-14T04:55:28.341Z,30.10
2023-02-14T04:57:55.706Z,28.40
2023-02-14T05:00:24.202Z,27.95
2023-02-14T05:02:51.613Z,22.85
2023-02-14T05:05:18.985Z,18.55
2023-02-14T05:07:47.857Z,18.73
2023-02-14T05:10:15.571Z,16.85
2023-02-14T05:12:42.886Z,30.30
2023-02-14T05:15:10.543Z,18.85
2023-02-14T05:17:37.938Z,16.03
2023-02-14T05:20:06.801Z,13.27
2023-02-14T05:22:34.172Z,21.85
2023-02-14T05:25:01.502Z,21.75
2023-02-14T05:27:28.919Z,25.10
2023-02-14T05:29:56.287Z,15.93
2023-02-14T05:32:23.811Z,20.02
2023-02-14T05:34:52.796Z,19.77
2023-02-14T05:37:20.389Z,15.30
2023-02-14T05:39:47.856Z,16.55
2023-02-14T05:42:15.435Z,18.60
2023-02-14T05:44:43.036Z,14.82
2023-02-14T05:47:12.968Z,16.87
2023-02-14T05:49:40.609Z,11.93
2023-02-14T05:52:08.055Z,13.85
2023-02-14T05:54:35.784Z,14.27
2023-02-14T05:57:03.441Z,14.30
2023-02-14T05:59:31.347Z,12.27
2023-02-14T06:01:58.732Z,13.52
2023-02-14T06:04:26.260Z,16.77
2023-02-14T06:06:53.835Z,19.63
2023-02-14T06:09:21.244Z,26.15
2023-02-14T06:11:48.573Z,33.83
2023-02-14T06:14:16.131Z,19.40
2023-02-14T06:16:44.331Z,17.38
2023-02-14T06:19:11.756Z,10.77
2023-02-14T06:21:39.162Z,15.25
2023-02-14T06:24:06.799Z,13.88
2023-02-14T06:26:36.083Z,17.10
2023-02-14T06:29:03.940Z,14.77
2023-02-14T06:31:31.636Z,12.38
2023-02-14T06:33:59.157Z,14.68
2023-02-14T06:36:27.148Z,15.75
2023-02-14T06:38:54.484Z,13.85
2023-02-14T06:41:21.853Z,14.73
2023-02-14T06:43:49.374Z,15.27
2023-02-14T06:46:18.956Z,17.58
2023-02-14T06:48:46.782Z,18.98
2023-02-14T06:51:14.254Z,21.15
2023-02-14T06:53:41.605Z,19.08
2023-02-14T06:56:09.005Z,20.95
2023-02-14T06:58:36.448Z,27.25
2023-02-14T07:01:04.567Z,30.63
2023-02-14T07:03:31.988Z,28.15
2023-02-14T07:05:59.873Z,40.53
2023-02-14T07:08:27.753Z,32.58
2023-02-14T07:10:58.326Z,30.20
2023-02-14T07:13:26.575Z,34.78
2023-02-14T07:15:54.338Z,35.25
2023-02-14T07:18:21.754Z,30.42
2023-02-14T07:20:50.912Z,30.73
2023-02-14T07:23:18.495Z,19.33
2023-02-14T07:25:46.088Z,30.05
2023-02-14T07:28:13.955Z,45.20
2023-02-14T07:30:41.967Z,53.40
2023-02-14T07:33:09.497Z,43.47
2023-02-14T07:35:36.787Z,35.83
2023-02-14T07:38:04.231Z,34.83
2023-02-14T07:40:31.796Z,36.13
2023-02-14T07:43:00.888Z,25.90
2023-02-14T07:45:28.410Z,26.27
2023-02-14T07:47:55.936Z,30.08
2023-02-14T07:50:23.769Z,21.65
2023-02-14T07:52:51.471Z,25.73
2023-02-14T07:55:19.454Z,22.33
2023-02-14T07:57:50.027Z,15.05
2023-02-14T08:00:18.745Z,18.75
2023-02-14T08:05:14.878Z,16.45
2023-02-14T08:07:43.925Z,14.80
2023-02-14T08:10:13.090Z,16.00
2023-02-14T08:12:59.586Z,11.43
2023-02-14T08:15:53.013Z,12.95
2023-02-14T08:18:25.509Z,11.93
2023-02-14T08:20:53.081Z,12.45
2023-02-14T08:23:21.459Z,11.90
2023-02-14T08:25:51.276Z,13.52
2023-02-14T08:28:22.236Z,12.82
2023-02-14T08:30:50.713Z,13.90
2023-02-14T08:33:18.737Z,13.45
2023-02-14T08:35:46.403Z,13.75
2023-02-14T08:38:13.929Z,18.88
2023-02-14T08:40:41.765Z,14.88
2023-02-14T08:43:09.830Z,15.30
2023-02-14T08:45:38.538Z,13.80
2023-02-14T08:48:10.406Z,12.07
2023-02-14T08:50:39.323Z,9.80
2023-02-14T08:53:12.614Z,9.00
2023-02-14T08:55:40.565Z,16.75
2023-02-14T08:58:08.479Z,12.50
2023-02-14T09:00:36.216Z,16.20
2023-02-14T09:03:03.894Z,15.80
2023-02-14T09:05:31.520Z,26.27
2023-02-14T09:07:59.548Z,20.50
2023-02-14T09:10:28.346Z,16.35
2023-02-14T09:12:55.893Z,11.75
2023-02-14T09:15:23.421Z,11.45
2023-02-14T09:17:51.914Z,10.50
2023-02-14T09:20:19.624Z,11.32
2023-02-14T09:22:48.744Z,10.67
2023-02-14T09:25:17.437Z,9.52
2023-02-14T09:27:44.942Z,11.00
2023-02-14T09:30:13.456Z,10.02
2023-02-14T09:35:08.487Z,9.75
2023-02-14T09:37:35.816Z,9.23
2023-02-14T09:40:04.621Z,10.10
2023-02-14T09:42:45.657Z,12.20
2023-02-14T09:45:18.419Z,11.07
2023-02-14T09:48:26.090Z,8.65
2023-02-14T09:51:03.724Z,8.93
2023-02-14T09:53:37.282Z,11.15
2023-02-14T09:56:11.925Z,9.05
2023-02-14T09:58:54.486Z,9.98
2023-02-14T10:01:45.950Z,14.68
2023-02-14T10:04:34.979Z,11.07
2023-02-14T10:07:19.669Z,11.38
2023-02-14T10:09:59.544Z,10.98
2023-02-14T10:12:33.787Z,13.60
2023-02-14T10:15:27.766Z,10.77
2023-02-14T10:18:08.035Z,11.55
2023-02-14T10:20:46.242Z,14.90
2023-02-14T10:23:37.874Z,10.70
2023-02-14T10:26:14.363Z,9.77
2023-02-14T10:28:49.088Z,10.73
2023-02-14T10:31:24.413Z,9.90
2023-02-14T10:33:57.837Z,10.48
2023-02-14T10:36:46.470Z,10.07
2023-02-14T10:42:21.328Z,8.95
2023-02-14T10:44:58.848Z,13.65
2023-02-14T10:48:22.124Z,13.43
2023-02-14T10:51:04.454Z,11.27
2023-02-14T10:54:08.874Z,10.45
2023-02-14T10:56:45.149Z,8.73
2023-02-14T10:59:35.162Z,9.40
2023-02-14T11:02:03.776Z,9.48
2023-02-14T11:04:32.331Z,14.43
2023-02-14T11:09:26.912Z,14.32
2023-02-14T11:11:58.781Z,11.35
2023-02-14T11:14:32.456Z,10.55
2023-02-14T11:17:20.156Z,9.57
2023-02-14T11:20:06.362Z,9.45
2023-02-14T11:22:35.771Z,11.25
2023-02-14T11:25:19.185Z,11.43
2023-02-14T11:27:52.427Z,9.25
2023-02-14T11:30:41.825Z,15.07
2023-02-14T11:33:42.978Z,12.48
2023-02-14T11:36:17.504Z,11.60
2023-02-14T11:38:54.697Z,9.77
2023-02-14T11:41:22.337Z,16.90
2023-02-14T11:46:24.069Z,14.30
2023-02-14T11:49:06.864Z,15.05
2023-02-14T11:51:40.262Z,11.55
2023-02-14T11:54:24.523Z,9.95
2023-02-14T11:57:01.976Z,11.90
2023-02-14T11:59:42.143Z,21.10
2023-02-14T12:02:24.441Z,21.58
2023-02-14T12:05:04.326Z,14.48
2023-02-14T12:07:38.522Z,16.13
2023-02-14T12:10:17.554Z,29.10
2023-02-14T12:13:02.930Z,53.85
2023-02-14T12:15:43.104Z,45.17
2023-02-14T12:18:47.284Z,27.58
2023-02-14T12:21:46.875Z,16.55
2023-02-14T12:24:30.393Z,28.90
2023-02-14T12:27:03.057Z,24.00
2023-02-14T12:29:54.397Z,12.57
2023-02-14T12:32:29.416Z,13.65
2023-02-14T12:35:17.336Z,11.52
2023-02-14T12:38:19.757Z,11.73
2023-02-14T12:41:02.153Z,12.20
2023-02-14T12:43:45.493Z,15.30
2023-02-14T12:46:49.070Z,12.27
2023-02-14T12:50:01.416Z,11.65
2023-02-14T12:52:48.628Z,12.93
2023-02-14T12:55:42.159Z,12.00
2023-02-14T12:58:26.704Z,14.20
2023-02-14T13:01:32.870Z,11.77
2023-02-14T13:04:09.948Z,14.93
2023-02-14T13:06:45.565Z,15.32
2023-02-14T13:09:41.053Z,16.23
2023-02-14T13:12:26.529Z,12.27
2023-02-14T13:15:19.102Z,12.55
2023-02-14T13:17:46.486Z,12.63
2023-02-14T13:20:47.396Z,10.20
2023-02-14T13:23:27.415Z,12.85
2023-02-14T13:26:02.587Z,14.40
2023-02-14T13:28:31.674Z,12.55
2023-02-14T13:31:01.765Z,14.88
2023-02-14T13:33:38.032Z,11.98
2023-02-14T13:36:12.706Z,14.48
2023-02-14T13:38:52.634Z,13.45
2023-02-14T13:41:22.998Z,11.75
2023-02-14T13:44:02.842Z,11.95
2023-02-14T13:46:30.513Z,15.27
2023-02-14T13:49:24.134Z,15.40
2023-02-14T13:51:55.935Z,16.92
2023-02-14T13:54:36.237Z,15.85
2023-02-14T13:57:36.532Z,17.80
2023-02-14T14:00:19.243Z,19.30
2023-02-14T14:02:56.883Z,26.13
2023-02-14T14:05:29.998Z,12.75
2023-02-14T14:08:22.629Z,13.27
2023-02-14T14:10:59.640Z,12.10
2023-02-14T14:13:46.015Z,15.02
2023-02-14T14:16:23.415Z,12.85
2023-02-14T14:18:55.469Z,10.98
2023-02-14T14:21:34.240Z,12.20
2023-02-14T14:24:25.420Z,16.90
2023-02-14T14:27:06.662Z,13.10
2023-02-14T14:29:55.600Z,13.32
2023-02-14T14:32:37.707Z,16.00
2023-02-14T14:35:25.352Z,15.68
2023-02-14T14:37:59.760Z,17.33
2023-02-14T14:40:32.705Z,17.35
2023-02-14T14:43:09.658Z,18.45
2023-02-14T14:45:37.476Z,17.98
2023-02-14T14:48:13.785Z,16.92
2023-02-14T14:50:46.135Z,21.48
2023-02-14T14:53:47.153Z,29.42
2023-02-14T14:56:22.785Z,27.27
2023-02-14T14:58:50.564Z,17.65
2023-02-14T15:01:33.294Z,21.30
2023-02-14T15:04:20.062Z,22.50
2023-02-14T15:06:48.814Z,16.75
2023-02-14T15:09:24.043Z,20.02
2023-02-14T15:12:12.308Z,21.15
2023-02-14T15:14:46.254Z,18.67
2023-02-14T15:17:31.920Z,16.48
2023-02-14T15:20:07.041Z,19.67
2023-02-14T15:22:40.852Z,18.73
2023-02-14T15:25:16.758Z,18.00
2023-02-14T15:27:44.868Z,17.77
2023-02-14T15:30:37.720Z,16.73
2023-02-14T15:33:07.662Z,18.30
2023-02-14T15:35:42.279Z,20.35
2023-02-14T15:38:13.495Z,20.88
2023-02-14T15:40:43.978Z,16.92
2023-02-14T15:43:32.494Z,15.38
2023-02-14T15:46:35.213Z,16.45
2023-02-14T15:49:10.168Z,16.00
2023-02-14T15:51:38.997Z,17.83
2023-02-14T15:54:25.431Z,17.92
2023-02-14T15:56:54.476Z,17.17
2023-02-14T15:59:30.977Z,16.33
2023-02-14T16:02:38.888Z,17.30
2023-02-14T16:05:18.096Z,21.85
2023-02-14T16:08:24.663Z,20.30
2023-02-14T16:11:35.492Z,17.58
2023-02-14T16:14:35.422Z,20.42
2023-02-14T16:17:12.102Z,22.00
2023-02-14T16:19:45.763Z,18.50
2023-02-14T16:22:32.049Z,19.50
2023-02-14T16:24:59.796Z,18.33
2023-02-14T16:27:27.556Z,16.70
2023-02-14T16:29:55.094Z,15.10
2023-02-14T16:32:24.537Z,16.48
2023-02-14T16:34:52.130Z,18.83
2023-02-14T16:37:24.556Z,20.67
2023-02-14T16:39:56.570Z,17.17
2023-02-14T16:42:24.581Z,17.85
2023-02-14T16:44:52.165Z,14.55
2023-02-14T16:47:21.378Z,17.13
2023-02-14T16:49:50.672Z,17.50
2023-02-14T16:52:25.736Z,25.55
2023-02-14T16:54:53.679Z,34.25
2023-02-14T16:57:29.157Z,34.20
2023-02-14T16:59:57.076Z,36.97
2023-02-14T17:02:28.415Z,53.15
2023-02-14T17:04:56.353Z,40.10
2023-02-14T17:07:23.899Z,49.87
2023-02-14T17:09:58.008Z,59.65
2023-02-14T17:12:31.143Z,55.83
2023-02-14T17:15:06.225Z,53.05
2023-02-14T17:17:36.251Z,57.13
2023-02-14T17:20:08.329Z,53.72
2023-02-14T17:22:37.595Z,50.80
2023-02-14T17:25:06.251Z,49.42
2023-02-14T17:30:01.194Z,46.72
2023-02-14T17:32:28.936Z,49.83
2023-02-14T17:34:57.075Z,58.53
2023-02-14T17:37:24.629Z,58.45
2023-02-14T17:39:53.126Z,59.15
2023-02-14T17:42:20.745Z,58.22
2023-02-14T17:44:48.213Z,56.03
2023-02-14T17:47:18.092Z,55.65
2023-02-14T17:49:47.435Z,65.72
2023-02-14T17:52:16.026Z,74.88
2023-02-14T17:54:43.769Z,140.25
2023-02-14T17:57:12.699Z,89.27
2023-02-14T17:59:40.171Z,92.72
2023-02-14T18:02:07.626Z,68.50
2023-02-14T18:04:37.212Z,84.63
2023-02-14T18:07:05.836Z,90.65
2023-02-14T18:12:00.448Z,75.28
2023-02-14T18:14:27.905Z,60.15
2023-02-14T18:16:55.325Z,60.65
2023-02-14T18:19:22.790Z,72.80
2023-02-14T18:21:50.101Z,58.42
2023-02-14T18:24:17.559Z,63.40
2023-02-14T18:26:44.952Z,65.45
2023-02-14T18:29:13.267Z,71.47
2023-02-14T18:31:43.441Z,90.57
2023-02-14T18:34:11.590Z,68.63
2023-02-14T18:36:41.898Z,70.40
2023-02-14T18:39:10.601Z,72.88
2023-02-14T18:41:38.269Z,52.20
2023-02-14T18:44:06.889Z,54.28
2023-02-14T18:49:07.110Z,59.42
2023-02-14T18:51:39.137Z,51.58
2023-02-14T18:54:07.678Z,63.03
2023-02-14T18:56:38.212Z,67.97
2023-02-14T18:59:09.856Z,88.55
2023-02-14T19:01:44.891Z,66.35
2023-02-14T19:04:13.460Z,56.67
2023-02-14T19:06:42.418Z,79.68
2023-02-14T19:09:17.112Z,47.83
2023-02-14T19:11:45.290Z,40.47
2023-02-14T19:14:13.412Z,37.80
2023-02-14T19:16:50.373Z,32.65
2023-02-14T19:19:20.323Z,34.72
2023-02-14T19:24:16.919Z,49.65
2023-02-14T19:26:44.682Z,64.88
2023-02-14T19:29:16.773Z,67.67
2023-02-14T19:31:51.423Z,75.65
2023-02-14T19:34:28.016Z,44.15
2023-02-14T19:37:00.530Z,54.60
2023-02-14T19:39:31.913Z,59.05
2023-02-14T19:42:00.364Z,51.90
2023-02-14T19:44:29.267Z,44.55
2023-02-14T19:46:59.982Z,45.25
2023-02-14T19:49:29.240Z,45.55
2023-02-14T19:51:57.487Z,47.78
2023-02-14T19:54:25.664Z,44.20
2023-02-14T19:56:56.196Z,40.58
2023-02-14T19:59:23.807Z,43.33
2023-02-14T20:01:53.944Z,39.33
2023-02-14T20:04:27.744Z,39.60
2023-02-14T20:06:56.645Z,40.42
2023-02-14T20:09:25.531Z,47.45
2023-02-14T20:11:56.309Z,35.95
2023-02-14T20:14:49.895Z,35.22
2023-02-14T20:17:18.749Z,37.72
2023-02-14T20:19:46.588Z,29.60
2023-02-14T20:22:14.001Z,38.08
2023-02-14T20:24:41.374Z,35.72
2023-02-14T20:27:08.794Z,31.00
2023-02-14T20:29:38.881Z,36.38
2023-02-14T20:32:06.454Z,30.45
2023-02-14T20:34:33.969Z,34.13
2023-02-14T20:37:01.636Z,37.15
2023-02-14T20:39:34.797Z,33.07
2023-02-14T20:42:02.740Z,33.88
2023-02-14T20:44:31.076Z,34.67
2023-02-14T20:46:58.722Z,30.50
2023-02-14T20:49:28.432Z,34.42
2023-02-14T20:51:56.137Z,36.85
2023-02-14T20:54:26.563Z,35.47
2023-02-14T20:56:54.943Z,32.47
2023-02-14T20:59:28.996Z,39.65
2023-02-14T21:01:59.303Z,38.28
2023-02-14T21:04:27.842Z,38.30
2023-02-14T21:06:57.588Z,35.95
2023-02-14T21:09:25.009Z,39.22
2023-02-14T21:11:53.939Z,32.75
2023-02-14T21:14:21.798Z,31.52
2023-02-14T21:16:49.293Z,40.72
2023-02-14T21:44:59.241Z,34.75
2023-02-14T21:47:26.792Z,38.22
2023-02-14T21:50:12.780Z,37.88
2023-02-14T21:52:40.147Z,32.85
2023-02-14T21:55:08.499Z,35.65
2023-02-14T21:57:36.028Z,40.22
2023-02-14T22:00:05.549Z,32.35
2023-02-14T22:02:39.752Z,34.90
2023-02-14T22:05:08.025Z,33.55
2023-02-14T22:07:35.640Z,37.33
2023-02-14T22:10:03.521Z,39.63
2023-02-14T22:12:31.192Z,37.72
2023-02-14T22:15:01.374Z,37.88
2023-02-14T22:17:28.745Z,35.42
2023-02-14T22:19:56.103Z,41.75
2023-02-14T22:22:23.738Z,43.47
2023-02-14T22:24:51.153Z,29.70
2023-02-14T22:27:18.501Z,31.95
2023-02-14T22:29:46.066Z,29.67
2023-02-14T22:32:13.529Z,32.97
2023-02-14T22:34:40.889Z,36.78
2023-02-14T22:37:08.316Z,32.15
2023-02-14T22:39:35.651Z,30.38
2023-02-14T22:42:06.743Z,26.25
2023-02-14T22:44:34.088Z,29.40
2023-02-14T22:47:01.477Z,28.63
2023-02-14T22:49:28.913Z,33.75
2023-02-14T22:51:56.306Z,36.67
2023-02-14T22:54:23.811Z,38.00
2023-02-14T22:56:51.504Z,32.83
2023-02-14T22:59:25.394Z,42.80
2023-02-14T23:01:54.644Z,38.72
2023-02-14T23:04:24.912Z,34.55
2023-02-14T23:06:53.775Z,30.73
2023-02-14T23:09:23.612Z,30.98
2023-02-14T23:11:51.148Z,31.08
2023-02-14T23:14:38.357Z,41.88
2023-02-14T23:17:18.940Z,34.40
2023-02-14T23:20:05.458Z,31.85
2023-02-14T23:22:39.496Z,29.40
2023-02-14T23:25:10.684Z,33.35
2023-02-14T23:27:45.051Z,31.95
2023-02-14T23:30:18.740Z,27.65
2023-02-14T23:32:46.631Z,29.10
2023-02-14T23:35:14.450Z,36.83
2023-02-14T23:37:41.969Z,33.53
2023-02-14T23:40:10.210Z,28.98
2023-02-14T23:42:37.645Z,34.15
2023-02-14T23:45:24.065Z,30.88
2023-02-14T23:47:51.532Z,30.33
2023-02-14T23:50:18.984Z,36.20
2023-02-14T23:52:46.326Z,32.60
2023-02-14T23:55:13.711Z,38.75
2023-02-14T23:57:41.153Z,33.88
